sensor_id;sensor_type;location;lat;lon;timestamp;P1;durP1;ratioP1;P2;durP2;ratioP2
16480;SDS011;44634;54.110;12.138;2023-01-10T00:02:27;18.40;;;9.60;;
16480;SDS011;44634;54.110;12.138;2023-01-10T00:04:56;16.37;;;9.87;;
16480;SDS011;44634;54.110;12.138;2023-01-10T00:07:24;17.57;;;10.63;;
16480;SDS011;44634;54.110;12.138;2023-01-10T00:09:52;22.03;;;10.67;;
16480;SDS011;44634;54.110;12.138;2023-01-10T00:12:19;23.97;;;11.57;;
16480;SDS011;44634;54.110;12.138;2023-01-10T00:15:05;19.77;;;11.43;;
16480;SDS011;44634;54.110;12.138;2023-01-10T00:17:33;24.43;;;12.20;;
16480;SDS011;44634;54.110;12.138;2023-01-10T00:20:03;23.20;;;13.17;;
16480;SDS011;44634;54.110;12.138;2023-01-10T00:22:31;25.53;;;13.17;;
16480;SDS011;44634;54.110;12.138;2023-01-10T00:24:59;19.90;;;12.47;;
16480;SDS011;44634;54.110;12.138;2023-01-10T00:27:27;22.93;;;12.63;;
16480;SDS011;44634;54.110;12.138;2023-01-10T00:29:55;25.30;;;13.47;;
16480;SDS011;44634;54.110;12.138;2023-01-10T00:32:26;27.23;;;13.97;;
16480;SDS011;44634;54.110;12.138;2023-01-10T00:34:53;28.27;;;14.00;;
16480;SDS011;44634;54.110;12.138;2023-01-10T00:37:23;28.43;;;13.93;;
16480;SDS011;44634;54.110;12.138;2023-01-10T00:39:50;28.40;;;14.93;;
16480;SDS011;44634;54.110;12.138;2023-01-10T00:42:18;27.87;;;15.00;;
16480;SDS011;44634;54.110;12.138;2023-01-10T00:45:03;28.47;;;14.23;;
16480;SDS011;44634;54.110;12.138;2023-01-10T00:47:32;27.07;;;14.10;;
16480;SDS011;44634;54.110;12.138;2023-01-10T00:49:59;32.70;;;14.20;;
16480;SDS011;44634;54.110;12.138;2023-01-10T00:52:30;32.77;;;16.03;;
16480;SDS011;44634;54.110;12.138;2023-01-10T00:54:58;33.57;;;16.23;;
16480;SDS011;44634;54.110;12.138;2023-01-10T00:57:26;31.10;;;15.53;;
16480;SDS011;44634;54.110;12.138;2023-01-10T00:59:53;31.23;;;14.57;;
16480;SDS011;44634;54.110;12.138;2023-01-10T01:02:21;30.80;;;15.83;;
16480;SDS011;44634;54.110;12.138;2023-01-10T01:04:49;32.07;;;16.13;;
16480;SDS011;44634;54.110;12.138;2023-01-10T01:07:17;29.60;;;15.13;;
16480;SDS011;44634;54.110;12.138;2023-01-10T01:09:46;27.53;;;13.63;;
16480;SDS011;44634;54.110;12.138;2023-01-10T01:12:31;33.20;;;15.10;;
16480;SDS011;44634;54.110;12.138;2023-01-10T01:14:59;29.10;;;15.07;;
16480;SDS011;44634;54.110;12.138;2023-01-10T01:17:27;33.70;;;16.40;;
16480;SDS011;44634;54.110;12.138;2023-01-10T01:19:54;32.70;;;16.23;;
16480;SDS011;44634;54.110;12.138;2023-01-10T01:22:22;34.50;;;16.13;;
16480;SDS011;44634;54.110;12.138;2023-01-10T01:24:51;32.20;;;16.53;;
16480;SDS011;44634;54.110;12.138;2023-01-10T01:27:19;33.17;;;15.57;;
16480;SDS011;44634;54.110;12.138;2023-01-10T01:29:47;32.27;;;15.07;;
16480;SDS011;44634;54.110;12.138;2023-01-10T01:32:15;33.07;;;16.13;;
16480;SDS011;44634;54.110;12.138;2023-01-10T01:34:43;34.00;;;16.33;;
16480;SDS011;44634;54.110;12.138;2023-01-10T01:37:10;31.90;;;14.70;;
16480;SDS011;44634;54.110;12.138;2023-01-10T01:39:38;32.30;;;16.07;;
16480;SDS011;44634;54.110;12.138;2023-01-10T01:42:12;30.80;;;15.07;;
16480;SDS011;44634;54.110;12.138;2023-01-10T01:45:02;33.27;;;15.53;;
16480;SDS011;44634;54.110;12.138;2023-01-10T01:47:52;33.03;;;15.50;;
16480;SDS011;44634;54.110;12.138;2023-01-10T01:50:24;30.57;;;16.17;;
16480;SDS011;44634;54.110;12.138;2023-01-10T01:52:55;30.73;;;15.87;;
16480;SDS011;44634;54.110;12.138;2023-01-10T01:55:27;29.47;;;15.87;;
16480;SDS011;44634;54.110;12.138;2023-01-10T01:58:01;30.10;;;14.57;;
16480;SDS011;44634;54.110;12.138;2023-01-10T02:00:34;32.73;;;15.70;;
16480;SDS011;44634;54.110;12.138;2023-01-10T02:03:02;27.87;;;13.97;;
16480;SDS011;44634;54.110;12.138;2023-01-10T02:05:32;28.97;;;15.17;;
16480;SDS011;44634;54.110;12.138;2023-01-10T02:08:03;29.80;;;15.03;;
16480;SDS011;44634;54.110;12.138;2023-01-10T02:10:32;30.80;;;13.57;;
16480;SDS011;44634;54.110;12.138;2023-01-10T02:13:10;29.23;;;14.63;;
16480;SDS011;44634;54.110;12.138;2023-01-10T02:15:40;31.67;;;16.00;;
16480;SDS011;44634;54.110;12.138;2023-01-10T02:18:08;32.13;;;15.37;;
16480;SDS011;44634;54.110;12.138;2023-01-10T02:20:38;32.50;;;16.23;;
16480;SDS011;44634;54.110;12.138;2023-01-10T02:23:34;31.83;;;15.57;;
16480;SDS011;44634;54.110;12.138;2023-01-10T02:26:25;28.77;;;14.57;;
16480;SDS011;44634;54.110;12.138;2023-01-10T02:32:39;28.03;;;14.00;;
16480;SDS011;44634;54.110;12.138;2023-01-10T02:35:34;28.57;;;12.97;;
16480;SDS011;44634;54.110;12.138;2023-01-10T02:38:16;31.17;;;13.97;;
16480;SDS011;44634;54.110;12.138;2023-01-10T02:40:56;27.53;;;14.50;;
16480;SDS011;44634;54.110;12.138;2023-01-10T02:43:33;29.17;;;14.50;;
16480;SDS011;44634;54.110;12.138;2023-01-10T02:46:04;29.73;;;14.60;;
16480;SDS011;44634;54.110;12.138;2023-01-10T02:48:36;28.07;;;14.27;;
16480;SDS011;44634;54.110;12.138;2023-01-10T02:51:07;33.70;;;13.40;;
16480;SDS011;44634;54.110;12.138;2023-01-10T02:53:44;31.33;;;14.83;;
16480;SDS011;44634;54.110;12.138;2023-01-10T02:59:24;28.83;;;14.53;;
16480;SDS011;44634;54.110;12.138;2023-01-10T03:02:07;30.13;;;13.70;;
16480;SDS011;44634;54.110;12.138;2023-01-10T03:04:46;27.23;;;13.63;;
16480;SDS011;44634;54.110;12.138;2023-01-10T03:07:19;29.70;;;13.53;;
16480;SDS011;44634;54.110;12.138;2023-01-10T03:09:55;28.33;;;13.23;;
16480;SDS011;44634;54.110;12.138;2023-01-10T03:12:30;25.30;;;12.97;;
16480;SDS011;44634;54.110;12.138;2023-01-10T03:15:07;29.27;;;13.60;;
16480;SDS011;44634;54.110;12.138;2023-01-10T03:17:38;24.00;;;12.93;;
16480;SDS011;44634;54.110;12.138;2023-01-10T03:20:11;25.90;;;13.47;;
16480;SDS011;44634;54.110;12.138;2023-01-10T03:22:39;26.77;;;12.97;;
16480;SDS011;44634;54.110;12.138;2023-01-10T03:25:09;24.67;;;12.70;;
16480;SDS011;44634;54.110;12.138;2023-01-10T03:27:42;24.87;;;13.33;;
16480;SDS011;44634;54.110;12.138;2023-01-10T03:30:20;28.37;;;13.10;;
16480;SDS011;44634;54.110;12.138;2023-01-10T03:32:53;27.43;;;12.30;;
16480;SDS011;44634;54.110;12.138;2023-01-10T03:35:30;29.63;;;13.63;;
16480;SDS011;44634;54.110;12.138;2023-01-10T03:38:02;30.23;;;13.80;;
16480;SDS011;44634;54.110;12.138;2023-01-10T03:40:39;25.10;;;12.13;;
16480;SDS011;44634;54.110;12.138;2023-01-10T03:43:12;29.63;;;13.90;;
16480;SDS011;44634;54.110;12.138;2023-01-10T03:46:02;27.83;;;12.63;;
16480;SDS011;44634;54.110;12.138;2023-01-10T03:48:34;23.63;;;12.50;;
16480;SDS011;44634;54.110;12.138;2023-01-10T03:51:04;28.10;;;13.47;;
16480;SDS011;44634;54.110;12.138;2023-01-10T03:53:36;23.77;;;12.50;;
16480;SDS011;44634;54.110;12.138;2023-01-10T03:56:05;23.23;;;12.70;;
16480;SDS011;44634;54.110;12.138;2023-01-10T03:58:34;29.33;;;12.57;;
16480;SDS011;44634;54.110;12.138;2023-01-10T04:01:01;22.57;;;11.60;;
16480;SDS011;44634;54.110;12.138;2023-01-10T04:03:29;32.13;;;12.63;;
16480;SDS011;44634;54.110;12.138;2023-01-10T04:05:57;29.43;;;13.30;;
16480;SDS011;44634;54.110;12.138;2023-01-10T04:08:26;30.00;;;13.00;;
16480;SDS011;44634;54.110;12.138;2023-01-10T04:10:54;27.70;;;12.53;;
16480;SDS011;44634;54.110;12.138;2023-01-10T04:13:22;26.13;;;13.17;;
16480;SDS011;44634;54.110;12.138;2023-01-10T04:15:49;28.20;;;11.70;;
16480;SDS011;44634;54.110;12.138;2023-01-10T04:18:17;23.10;;;11.33;;
16480;SDS011;44634;54.110;12.138;2023-01-10T04:20:45;22.53;;;11.63;;
16480;SDS011;44634;54.110;12.138;2023-01-10T04:23:13;25.20;;;12.53;;
16480;SDS011;44634;54.110;12.138;2023-01-10T04:25:44;25.33;;;11.43;;
16480;SDS011;44634;54.110;12.138;2023-01-10T04:28:13;24.03;;;11.53;;
16480;SDS011;44634;54.110;12.138;2023-01-10T04:30:40;21.77;;;12.27;;
16480;SDS011;44634;54.110;12.138;2023-01-10T04:33:08;23.93;;;12.03;;
16480;SDS011;44634;54.110;12.138;2023-01-10T04:35:37;33.20;;;12.17;;
16480;SDS011;44634;54.110;12.138;2023-01-10T04:38:05;21.30;;;10.83;;
16480;SDS011;44634;54.110;12.138;2023-01-10T04:40:33;21.03;;;11.67;;
16480;SDS011;44634;54.110;12.138;2023-01-10T04:43:02;23.07;;;10.17;;
16480;SDS011;44634;54.110;12.138;2023-01-10T04:45:30;22.00;;;10.37;;
16480;SDS011;44634;54.110;12.138;2023-01-10T04:47:57;21.90;;;10.70;;
16480;SDS011;44634;54.110;12.138;2023-01-10T04:50:25;18.77;;;10.13;;
16480;SDS011;44634;54.110;12.138;2023-01-10T04:52:53;27.27;;;10.60;;
16480;SDS011;44634;54.110;12.138;2023-01-10T04:55:21;22.10;;;9.90;;
16480;SDS011;44634;54.110;12.138;2023-01-10T04:57:49;23.13;;;10.00;;
16480;SDS011;44634;54.110;12.138;2023-01-10T05:00:18;21.90;;;10.30;;
16480;SDS011;44634;54.110;12.138;2023-01-10T05:02:46;24.40;;;9.93;;
16480;SDS011;44634;54.110;12.138;2023-01-10T05:05:14;21.20;;;9.93;;
16480;SDS011;44634;54.110;12.138;2023-01-10T05:07:44;15.80;;;9.13;;
16480;SDS011;44634;54.110;12.138;2023-01-10T05:10:12;24.73;;;8.93;;
16480;SDS011;44634;54.110;12.138;2023-01-10T05:12:40;18.23;;;8.67;;
16480;SDS011;44634;54.110;12.138;2023-01-10T05:15:08;15.40;;;7.87;;
16480;SDS011;44634;54.110;12.138;2023-01-10T05:17:37;23.30;;;8.40;;
16480;SDS011;44634;54.110;12.138;2023-01-10T05:20:06;19.27;;;8.30;;
16480;SDS011;44634;54.110;12.138;2023-01-10T05:22:35;10.73;;;7.30;;
16480;SDS011;44634;54.110;12.138;2023-01-10T05:25:03;15.40;;;8.00;;
16480;SDS011;44634;54.110;12.138;2023-01-10T05:27:31;14.60;;;6.50;;
16480;SDS011;44634;54.110;12.138;2023-01-10T05:29:58;14.60;;;7.23;;
16480;SDS011;44634;54.110;12.138;2023-01-10T05:32:27;12.60;;;6.60;;
16480;SDS011;44634;54.110;12.138;2023-01-10T05:34:57;15.80;;;7.37;;
16480;SDS011;44634;54.110;12.138;2023-01-10T05:37:24;13.23;;;8.10;;
16480;SDS011;44634;54.110;12.138;2023-01-10T05:39:52;16.53;;;6.70;;
16480;SDS011;44634;54.110;12.138;2023-01-10T05:42:20;16.93;;;6.47;;
16480;SDS011;44634;54.110;12.138;2023-01-10T05:44:47;13.03;;;6.40;;
16480;SDS011;44634;54.110;12.138;2023-01-10T05:47:15;15.80;;;6.37;;
16480;SDS011;44634;54.110;12.138;2023-01-10T05:49:43;8.80;;;4.80;;
16480;SDS011;44634;54.110;12.138;2023-01-10T05:52:13;9.73;;;5.33;;
16480;SDS011;44634;54.110;12.138;2023-01-10T05:54:40;8.97;;;5.20;;
16480;SDS011;44634;54.110;12.138;2023-01-10T05:57:09;12.40;;;6.77;;
16480;SDS011;44634;54.110;12.138;2023-01-10T05:59:37;8.33;;;5.37;;
16480;SDS011;44634;54.110;12.138;2023-01-10T06:02:04;6.87;;;4.83;;
16480;SDS011;44634;54.110;12.138;2023-01-10T06:04:32;11.07;;;4.80;;
16480;SDS011;44634;54.110;12.138;2023-01-10T06:07:00;14.10;;;5.63;;
16480;SDS011;44634;54.110;12.138;2023-01-10T06:09:29;9.23;;;4.60;;
16480;SDS011;44634;54.110;12.138;2023-01-10T06:11:57;10.67;;;5.17;;
16480;SDS011;44634;54.110;12.138;2023-01-10T06:14:25;8.27;;;4.70;;
16480;SDS011;44634;54.110;12.138;2023-01-10T06:16:53;7.40;;;4.87;;
16480;SDS011;44634;54.110;12.138;2023-01-10T06:19:21;12.17;;;5.93;;
16480;SDS011;44634;54.110;12.138;2023-01-10T06:21:49;16.37;;;4.77;;
16480;SDS011;44634;54.110;12.138;2023-01-10T06:24:16;7.10;;;4.70;;
16480;SDS011;44634;54.110;12.138;2023-01-10T06:26:46;10.83;;;4.77;;
16480;SDS011;44634;54.110;12.138;2023-01-10T06:29:13;6.50;;;4.50;;
16480;SDS011;44634;54.110;12.138;2023-01-10T06:31:41;8.73;;;4.80;;
16480;SDS011;44634;54.110;12.138;2023-01-10T06:34:09;11.73;;;5.23;;
16480;SDS011;44634;54.110;12.138;2023-01-10T06:36:37;10.67;;;5.20;;
16480;SDS011;44634;54.110;12.138;2023-01-10T06:39:04;9.47;;;5.60;;
16480;SDS011;44634;54.110;12.138;2023-01-10T06:41:32;13.20;;;5.37;;
16480;SDS011;44634;54.110;12.138;2023-01-10T06:44:01;12.87;;;5.47;;
16480;SDS011;44634;54.110;12.138;2023-01-10T06:46:29;9.37;;;5.50;;
16480;SDS011;44634;54.110;12.138;2023-01-10T06:48:57;12.13;;;5.53;;
16480;SDS011;44634;54.110;12.138;2023-01-10T06:51:25;8.73;;;5.47;;
16480;SDS011;44634;54.110;12.138;2023-01-10T06:53:53;11.33;;;5.27;;
16480;SDS011;44634;54.110;12.138;2023-01-10T06:56:21;17.70;;;6.40;;
16480;SDS011;44634;54.110;12.138;2023-01-10T06:58:49;13.23;;;5.47;;
16480;SDS011;44634;54.110;12.138;2023-01-10T07:01:19;12.87;;;5.57;;
16480;SDS011;44634;54.110;12.138;2023-01-10T07:03:47;10.47;;;4.90;;
16480;SDS011;44634;54.110;12.138;2023-01-10T07:06:15;13.87;;;5.07;;
16480;SDS011;44634;54.110;12.138;2023-01-10T07:08:43;10.90;;;5.73;;
16480;SDS011;44634;54.110;12.138;2023-01-10T07:11:12;14.13;;;5.63;;
16480;SDS011;44634;54.110;12.138;2023-01-10T07:13:41;15.60;;;5.67;;
16480;SDS011;44634;54.110;12.138;2023-01-10T07:16:10;16.03;;;5.33;;
16480;SDS011;44634;54.110;12.138;2023-01-10T07:18:41;11.50;;;5.13;;
16480;SDS011;44634;54.110;12.138;2023-01-10T07:21:09;10.80;;;5.30;;
16480;SDS011;44634;54.110;12.138;2023-01-10T07:23:38;14.33;;;5.30;;
16480;SDS011;44634;54.110;12.138;2023-01-10T07:26:07;13.73;;;5.00;;
16480;SDS011;44634;54.110;12.138;2023-01-10T07:28:36;9.17;;;5.57;;
16480;SDS011;44634;54.110;12.138;2023-01-10T07:31:04;14.33;;;5.33;;
16480;SDS011;44634;54.110;12.138;2023-01-10T07:33:32;11.73;;;5.43;;
16480;SDS011;44634;54.110;12.138;2023-01-10T07:36:01;10.33;;;5.03;;
16480;SDS011;44634;54.110;12.138;2023-01-10T07:38:29;11.00;;;5.23;;
16480;SDS011;44634;54.110;12.138;2023-01-10T07:40:57;8.10;;;5.10;;
16480;SDS011;44634;54.110;12.138;2023-01-10T07:43:27;12.63;;;5.30;;
16480;SDS011;44634;54.110;12.138;2023-01-10T07:45:56;13.20;;;4.93;;
16480;SDS011;44634;54.110;12.138;2023-01-10T07:48:25;11.77;;;5.73;;
16480;SDS011;44634;54.110;12.138;2023-01-10T07:50:54;12.60;;;5.27;;
16480;SDS011;44634;54.110;12.138;2023-01-10T07:53:24;8.17;;;3.53;;
16480;SDS011;44634;54.110;12.138;2023-01-10T07:55:52;11.33;;;5.37;;
16480;SDS011;44634;54.110;12.138;2023-01-10T07:58:20;10.87;;;5.00;;
16480;SDS011;44634;54.110;12.138;2023-01-10T08:00:48;14.83;;;5.00;;
16480;SDS011;44634;54.110;12.138;2023-01-10T08:03:16;13.43;;;4.50;;
16480;SDS011;44634;54.110;12.138;2023-01-10T08:05:44;10.20;;;4.10;;
16480;SDS011;44634;54.110;12.138;2023-01-10T08:08:12;21.30;;;4.17;;
16480;SDS011;44634;54.110;12.138;2023-01-10T08:10:43;12.90;;;4.10;;
16480;SDS011;44634;54.110;12.138;2023-01-10T08:13:11;8.57;;;4.50;;
16480;SDS011;44634;54.110;12.138;2023-01-10T08:15:44;11.37;;;4.13;;
16480;SDS011;44634;54.110;12.138;2023-01-10T08:18:15;14.73;;;3.90;;
16480;SDS011;44634;54.110;12.138;2023-01-10T08:20:43;9.80;;;4.27;;
16480;SDS011;44634;54.110;12.138;2023-01-10T08:23:12;10.93;;;3.80;;
16480;SDS011;44634;54.110;12.138;2023-01-10T08:25:40;11.40;;;4.00;;
16480;SDS011;44634;54.110;12.138;2023-01-10T08:28:09;13.00;;;4.40;;
16480;SDS011;44634;54.110;12.138;2023-01-10T08:30:37;8.70;;;3.83;;
16480;SDS011;44634;54.110;12.138;2023-01-10T08:33:05;8.90;;;3.93;;
16480;SDS011;44634;54.110;12.138;2023-01-10T08:35:37;9.07;;;3.63;;
16480;SDS011;44634;54.110;12.138;2023-01-10T08:38:05;11.93;;;3.63;;
16480;SDS011;44634;54.110;12.138;2023-01-10T08:40:33;10.03;;;3.60;;
16480;SDS011;44634;54.110;12.138;2023-01-10T08:43:02;10.87;;;3.00;;
16480;SDS011;44634;54.110;12.138;2023-01-10T08:45:33;6.93;;;4.20;;
16480;SDS011;44634;54.110;12.138;2023-01-10T08:48:02;7.13;;;3.20;;
16480;SDS011;44634;54.110;12.138;2023-01-10T08:50:31;9.70;;;3.40;;
16480;SDS011;44634;54.110;12.138;2023-01-10T08:52:59;10.13;;;3.43;;
16480;SDS011;44634;54.110;12.138;2023-01-10T08:55:28;6.13;;;3.03;;
16480;SDS011;44634;54.110;12.138;2023-01-10T08:57:57;7.87;;;3.33;;
16480;SDS011;44634;54.110;12.138;2023-01-10T09:00:26;9.50;;;3.27;;
16480;SDS011;44634;54.110;12.138;2023-01-10T09:02:55;6.20;;;2.47;;
16480;SDS011;44634;54.110;12.138;2023-01-10T09:05:23;6.73;;;2.90;;
16480;SDS011;44634;54.110;12.138;2023-01-10T09:07:56;10.33;;;2.73;;
16480;SDS011;44634;54.110;12.138;2023-01-10T09:10:25;4.93;;;2.63;;
16480;SDS011;44634;54.110;12.138;2023-01-10T09:12:53;13.43;;;3.00;;
16480;SDS011;44634;54.110;12.138;2023-01-10T09:15:21;6.97;;;3.00;;
16480;SDS011;44634;54.110;12.138;2023-01-10T09:17:52;6.97;;;2.87;;
16480;SDS011;44634;54.110;12.138;2023-01-10T09:20:22;7.93;;;2.87;;
16480;SDS011;44634;54.110;12.138;2023-01-10T09:22:51;6.90;;;3.43;;
16480;SDS011;44634;54.110;12.138;2023-01-10T09:25:19;8.20;;;3.47;;
16480;SDS011;44634;54.110;12.138;2023-01-10T09:27:47;6.97;;;3.53;;
16480;SDS011;44634;54.110;12.138;2023-01-10T09:30:22;9.97;;;4.13;;
16480;SDS011;44634;54.110;12.138;2023-01-10T09:32:50;7.53;;;3.10;;
16480;SDS011;44634;54.110;12.138;2023-01-10T09:35:19;5.50;;;3.87;;
16480;SDS011;44634;54.110;12.138;2023-01-10T09:37:48;2.43;;;2.20;;
16480;SDS011;44634;54.110;12.138;2023-01-10T09:40:18;6.50;;;3.70;;
16480;SDS011;44634;54.110;12.138;2023-01-10T09:42:54;12.73;;;3.83;;
16480;SDS011;44634;54.110;12.138;2023-01-10T09:45:34;7.80;;;3.60;;
16480;SDS011;44634;54.110;12.138;2023-01-10T09:48:10;10.93;;;3.70;;
16480;SDS011;44634;54.110;12.138;2023-01-10T09:50:46;9.23;;;4.33;;
16480;SDS011;44634;54.110;12.138;2023-01-10T09:53:27;14.40;;;5.03;;
16480;SDS011;44634;54.110;12.138;2023-01-10T09:55:59;10.87;;;4.47;;
16480;SDS011;44634;54.110;12.138;2023-01-10T09:58:30;8.73;;;4.13;;
16480;SDS011;44634;54.110;12.138;2023-01-10T10:01:01;14.07;;;4.40;;
16480;SDS011;44634;54.110;12.138;2023-01-10T10:03:34;14.53;;;5.37;;
16480;SDS011;44634;54.110;12.138;2023-01-10T10:06:08;8.43;;;3.47;;
16480;SDS011;44634;54.110;12.138;2023-01-10T10:08:40;8.03;;;4.13;;
16480;SDS011;44634;54.110;12.138;2023-01-10T10:11:16;15.10;;;3.77;;
16480;SDS011;44634;54.110;12.138;2023-01-10T10:13:59;5.07;;;3.73;;
16480;SDS011;44634;54.110;12.138;2023-01-10T10:16:35;8.77;;;3.87;;
16480;SDS011;44634;54.110;12.138;2023-01-10T10:19:13;12.47;;;4.40;;
16480;SDS011;44634;54.110;12.138;2023-01-10T10:21:49;10.20;;;3.70;;
16480;SDS011;44634;54.110;12.138;2023-01-10T10:24:32;5.00;;;3.10;;
16480;SDS011;44634;54.110;12.138;2023-01-10T10:27:13;5.90;;;3.83;;
16480;SDS011;44634;54.110;12.138;2023-01-10T10:32:49;8.23;;;4.30;;
16480;SDS011;44634;54.110;12.138;2023-01-10T10:35:25;13.30;;;3.70;;
16480;SDS011;44634;54.110;12.138;2023-01-10T10:37:56;7.10;;;3.80;;
16480;SDS011;44634;54.110;12.138;2023-01-10T10:40:31;6.27;;;3.33;;
16480;SDS011;44634;54.110;12.138;2023-01-10T10:43:05;7.10;;;3.47;;
16480;SDS011;44634;54.110;12.138;2023-01-10T10:45:41;3.90;;;3.47;;
16480;SDS011;44634;54.110;12.138;2023-01-10T10:48:12;11.73;;;3.70;;
16480;SDS011;44634;54.110;12.138;2023-01-10T10:50:49;6.40;;;3.27;;
16480;SDS011;44634;54.110;12.138;2023-01-10T10:53:23;6.07;;;3.23;;
16480;SDS011;44634;54.110;12.138;2023-01-10T10:55:52;10.47;;;3.87;;
16480;SDS011;44634;54.110;12.138;2023-01-10T10:58:20;7.73;;;3.33;;
16480;SDS011;44634;54.110;12.138;2023-01-10T11:00:48;9.20;;;3.93;;
16480;SDS011;44634;54.110;12.138;2023-01-10T11:03:22;7.50;;;3.50;;
16480;SDS011;44634;54.110;12.138;2023-01-10T11:05:53;11.00;;;3.70;;
16480;SDS011;44634;54.110;12.138;2023-01-10T11:08:22;8.07;;;3.53;;
16480;SDS011;44634;54.110;12.138;2023-01-10T11:10:53;9.40;;;3.70;;
16480;SDS011;44634;54.110;12.138;2023-01-10T11:13:25;7.83;;;4.40;;
16480;SDS011;44634;54.110;12.138;2023-01-10T11:16:03;8.70;;;3.90;;
16480;SDS011;44634;54.110;12.138;2023-01-10T11:18:32;4.27;;;3.30;;
16480;SDS011;44634;54.110;12.138;2023-01-10T11:21:00;7.97;;;4.20;;
16480;SDS011;44634;54.110;12.138;2023-01-10T11:23:35;10.03;;;3.70;;
16480;SDS011;44634;54.110;12.138;2023-01-10T11:26:08;8.37;;;5.60;;
16480;SDS011;44634;54.110;12.138;2023-01-10T11:28:48;8.47;;;4.13;;
16480;SDS011;44634;54.110;12.138;2023-01-10T11:31:24;11.20;;;4.97;;
16480;SDS011;44634;54.110;12.138;2023-01-10T11:33:54;12.17;;;4.00;;
16480;SDS011;44634;54.110;12.138;2023-01-10T11:36:23;9.07;;;4.70;;
16480;SDS011;44634;54.110;12.138;2023-01-10T11:38:58;5.90;;;4.53;;
16480;SDS011;44634;54.110;12.138;2023-01-10T11:41:30;9.53;;;4.63;;
16480;SDS011;44634;54.110;12.138;2023-01-10T11:44:14;11.40;;;5.00;;
16480;SDS011;44634;54.110;12.138;2023-01-10T11:46:43;11.20;;;5.13;;
16480;SDS011;44634;54.110;12.138;2023-01-10T11:49:12;10.10;;;5.53;;
16480;SDS011;44634;54.110;12.138;2023-01-10T11:51:46;8.97;;;4.90;;
16480;SDS011;44634;54.110;12.138;2023-01-10T11:54:16;7.43;;;4.97;;
16480;SDS011;44634;54.110;12.138;2023-01-10T11:56:53;8.90;;;5.03;;
16480;SDS011;44634;54.110;12.138;2023-01-10T11:59:23;13.13;;;6.17;;
16480;SDS011;44634;54.110;12.138;2023-01-10T12:01:54;13.87;;;5.80;;
16480;SDS011;44634;54.110;12.138;2023-01-10T12:04:26;9.87;;;5.20;;
16480;SDS011;44634;54.110;12.138;2023-01-10T12:06:56;12.30;;;6.20;;
16480;SDS011;44634;54.110;12.138;2023-01-10T12:09:35;15.23;;;6.20;;
16480;SDS011;44634;54.110;12.138;2023-01-10T12:12:19;12.13;;;5.83;;
16480;SDS011;44634;54.110;12.138;2023-01-10T12:14:48;8.47;;;5.83;;
16480;SDS011;44634;54.110;12.138;2023-01-10T12:17:19;11.47;;;5.50;;
16480;SDS011;44634;54.110;12.138;2023-01-10T12:19:50;12.10;;;5.03;;
16480;SDS011;44634;54.110;12.138;2023-01-10T12:22:19;11.30;;;5.73;;
16480;SDS011;44634;54.110;12.138;2023-01-10T12:24:52;8.73;;;4.93;;
16480;SDS011;44634;54.110;12.138;2023-01-10T12:27:23;15.07;;;6.00;;
16480;SDS011;44634;54.110;12.138;2023-01-10T12:29:57;8.10;;;4.77;;
16480;SDS011;44634;54.110;12.138;2023-01-10T12:32:31;13.77;;;5.10;;
16480;SDS011;44634;54.110;12.138;2023-01-10T12:35:03;8.73;;;5.13;;
16480;SDS011;44634;54.110;12.138;2023-01-10T12:37:39;13.80;;;4.37;;
16480;SDS011;44634;54.110;12.138;2023-01-10T12:40:13;13.47;;;5.07;;
16480;SDS011;44634;54.110;12.138;2023-01-10T12:42:50;7.70;;;4.93;;
16480;SDS011;44634;54.110;12.138;2023-01-10T12:45:39;9.47;;;5.07;;
16480;SDS011;44634;54.110;12.138;2023-01-10T12:48:13;9.83;;;4.80;;
16480;SDS011;44634;54.110;12.138;2023-01-10T12:50:49;8.40;;;5.30;;
16480;SDS011;44634;54.110;12.138;2023-01-10T12:53:27;10.00;;;4.60;;
16480;SDS011;44634;54.110;12.138;2023-01-10T12:55:58;8.57;;;3.93;;
16480;SDS011;44634;54.110;12.138;2023-01-10T12:58:33;7.73;;;4.47;;
16480;SDS011;44634;54.110;12.138;2023-01-10T13:01:05;7.80;;;3.90;;
16480;SDS011;44634;54.110;12.138;2023-01-10T13:03:35;8.83;;;4.03;;
16480;SDS011;44634;54.110;12.138;2023-01-10T13:06:03;9.07;;;4.53;;
16480;SDS011;44634;54.110;12.138;2023-01-10T13:08:31;6.67;;;3.97;;
16480;SDS011;44634;54.110;12.138;2023-01-10T13:11:01;9.00;;;4.07;;
16480;SDS011;44634;54.110;12.138;2023-01-10T13:13:32;9.70;;;4.70;;
16480;SDS011;44634;54.110;12.138;2023-01-10T13:16:08;9.47;;;4.17;;
16480;SDS011;44634;54.110;12.138;2023-01-10T13:21:31;9.67;;;3.57;;
16480;SDS011;44634;54.110;12.138;2023-01-10T13:24:01;12.67;;;4.27;;
16480;SDS011;44634;54.110;12.138;2023-01-10T13:26:44;9.53;;;4.30;;
16480;SDS011;44634;54.110;12.138;2023-01-10T13:29:17;8.90;;;4.20;;
16480;SDS011;44634;54.110;12.138;2023-01-10T13:31:47;10.07;;;4.57;;
16480;SDS011;44634;54.110;12.138;2023-01-10T13:34:22;10.67;;;4.47;;
16480;SDS011;44634;54.110;12.138;2023-01-10T13:36:54;8.83;;;4.50;;
16480;SDS011;44634;54.110;12.138;2023-01-10T13:39:26;9.37;;;4.23;;
16480;SDS011;44634;54.110;12.138;2023-01-10T13:42:10;13.37;;;4.93;;
16480;SDS011;44634;54.110;12.138;2023-01-10T13:45:23;8.30;;;3.40;;
16480;SDS011;44634;54.110;12.138;2023-01-10T13:47:57;7.53;;;3.77;;
16480;SDS011;44634;54.110;12.138;2023-01-10T13:50:50;11.63;;;3.83;;
16480;SDS011;44634;54.110;12.138;2023-01-10T13:59:09;5.53;;;2.90;;
16480;SDS011;44634;54.110;12.138;2023-01-10T14:01:58;7.53;;;3.33;;
16480;SDS011;44634;54.110;12.138;2023-01-10T14:04:46;10.00;;;3.63;;
16480;SDS011;44634;54.110;12.138;2023-01-10T14:07:20;6.93;;;3.60;;
16480;SDS011;44634;54.110;12.138;2023-01-10T14:09:50;6.10;;;3.23;;
16480;SDS011;44634;54.110;12.138;2023-01-10T14:12:29;9.27;;;3.67;;
16480;SDS011;44634;54.110;12.138;2023-01-10T14:15:02;6.90;;;3.33;;
16480;SDS011;44634;54.110;12.138;2023-01-10T14:17:35;3.90;;;3.20;;
16480;SDS011;44634;54.110;12.138;2023-01-10T14:20:05;7.43;;;2.70;;
16480;SDS011;44634;54.110;12.138;2023-01-10T14:22:44;4.83;;;3.10;;
16480;SDS011;44634;54.110;12.138;2023-01-10T14:25:24;5.00;;;3.57;;
16480;SDS011;44634;54.110;12.138;2023-01-10T14:27:53;11.33;;;3.43;;
16480;SDS011;44634;54.110;12.138;2023-01-10T14:30:23;10.93;;;4.10;;
16480;SDS011;44634;54.110;12.138;2023-01-10T14:32:55;6.77;;;3.80;;
16480;SDS011;44634;54.110;12.138;2023-01-10T14:35:29;9.27;;;3.97;;
16480;SDS011;44634;54.110;12.138;2023-01-10T14:38:02;9.13;;;4.10;;
16480;SDS011;44634;54.110;12.138;2023-01-10T14:40:33;5.93;;;3.03;;
16480;SDS011;44634;54.110;12.138;2023-01-10T14:43:07;9.47;;;3.87;;
16480;SDS011;44634;54.110;12.138;2023-01-10T14:45:38;6.83;;;3.97;;
16480;SDS011;44634;54.110;12.138;2023-01-10T14:51:15;12.93;;;4.37;;
16480;SDS011;44634;54.110;12.138;2023-01-10T14:53:46;9.77;;;3.93;;
16480;SDS011;44634;54.110;12.138;2023-01-10T14:56:22;10.17;;;4.13;;
16480;SDS011;44634;54.110;12.138;2023-01-10T14:58:51;10.03;;;3.80;;
16480;SDS011;44634;54.110;12.138;2023-01-10T15:01:21;11.07;;;4.10;;
16480;SDS011;44634;54.110;12.138;2023-01-10T15:03:52;11.47;;;5.03;;
16480;SDS011;44634;54.110;12.138;2023-01-10T15:06:22;9.47;;;4.90;;
16480;SDS011;44634;54.110;12.138;2023-01-10T15:08:54;11.17;;;4.63;;